Time;durP1;ratioP1;P1;durP2;ratioP2;P2;SDS_P1;SDS_P2;PMS_P1;PMS_P2;Temp;Humidity;BMP_temperature;BMP_pressure;BME280_temperature;BME280_humidity;BME280_pressure;Samples;Min_cycle;Max_cycle;Signal;HPM_P1;HPM_P2
2022/02/02 00:00:48;;;;;;;;;9.25;5.00;;;;;10.06;71.70;101907.66;5071749;28;50510;-76
2022/02/02 00:03:14;;;;;;;;;8.00;4.25;;;;;9.88;71.62;101877.22;5070482;28;49813;-76
2022/02/02 00:13:41;;;;;;;;;7.75;5.00;;;;;10.11;71.50;101907.00;5071863;27;49872;-75
2022/02/02 00:21:17;;;;;;;;;10.00;7.75;;;;;9.61;71.35;101849.84;5071793;27;49720;-76
2022/02/02 00:23:46;;;;;;;;;8.75;8.75;;;;;11.12;71.49;102066.03;5071601;28;49882;-76
2022/02/02 00:26:18;;;;;;;;;5.00;5.00;;;;;10.10;71.06;101907.84;5071581;27;49839;-76
2022/02/02 00:28:48;;;;;;;;;4.75;4.50;;;;;10.79;72.10;102003.44;5071816;28;50265;-76
2022/02/02 00:31:20;;;;;;;;;7.00;5.50;;;;;10.31;71.38;101913.09;5071013;28;50711;-75
2022/02/02 00:33:52;;;;;;;;;6.00;6.00;;;;;9.89;71.35;101854.50;5071400;27;49643;-76
2022/02/02 00:36:22;;;;;;;;;11.50;9.00;;;;;9.34;71.13;101779.69;5071412;28;49782;-74
2022/02/02 00:38:48;;;;;;;;;7.75;7.75;;;;;10.08;71.40;101871.88;5071624;28;49868;-74
2022/02/02 00:41:13;;;;;;;;;9.25;8.25;;;;;10.86;70.99;102031.75;5071449;27;50933;-73
2022/02/02 00:43:41;;;;;;;;;6.25;6.25;;;;;11.58;71.82;102163.38;5069703;28;49809;-74
2022/02/02 00:46:06;;;;;;;;;7.25;5.25;;;;;10.30;71.43;101983.06;5071042;28;49685;-73
2022/02/02 00:48:33;;;;;;;;;8.50;8.00;;;;;10.26;71.78;101936.53;5071851;28;49903;-73
2022/02/02 00:50:59;;;;;;;;;13.00;4.25;;;;;9.32;71.08;101772.63;5070951;27;49735;-74
2022/02/02 00:53:24;;;;;;;;;5.00;3.75;;;;;11.22;71.52;102118.13;5070601;28;49978;-74
2022/02/02 00:55:51;;;;;;;;;6.50;4.50;;;;;9.91;71.43;101886.94;5071287;27;49760;-74
2022/02/02 00:58:16;;;;;;;;;6.50;6.50;;;;;10.30;71.35;102000.53;5070082;28;50072;-74
2022/02/02 01:00:41;;;;;;;;;9.75;6.25;;;;;11.16;71.54;102118.78;5070636;28;50523;-74
2022/02/02 01:03:07;;;;;;;;;6.00;4.25;;;;;10.06;71.37;101910.28;5070988;28;49840;-74
2022/02/02 01:05:32;;;;;;;;;5.50;5.50;;;;;10.06;71.31;101915.53;5070924;28;50106;-74
2022/02/02 01:10:36;;;;;;;;;7.25;5.25;;;;;10.88;71.00;102082.59;5070813;28;49765;-74
2022/02/02 01:13:47;;;;;;;;;10.75;5.00;;;;;10.45;71.22;101988.06;5070931;27;49810;-75
2022/02/02 01:16:59;;;;;;;;;9.25;8.00;;;;;9.55;71.45;101858.34;5070512;27;50032;-77
2022/02/02 01:19:14;;;;;;;;;8.75;8.75;;;;;10.30;71.35;101927.06;5070900;28;49990;-74
2022/02/02 01:29:35;;;;;;;;;9.50;5.50;;;;;9.64;71.16;101860.44;5070697;28;49799;-74
2022/02/02 01:32:00;;;;;;;;;8.50;5.75;;;;;9.55;71.56;101850.47;5070603;28;50703;-75
2022/02/02 01:34:26;;;;;;;;;10.00;9.00;;;;;11.47;71.51;102148.91;5070949;27;49808;-75
2022/02/02 01:36:51;;;;;;;;;12.25;8.25;;;;;10.66;71.45;102016.03;5070505;27;49785;-74
2022/02/02 01:39:18;;;;;;;;;7.50;7.50;;;;;9.90;71.32;101908.75;5069423;28;49866;-73
2022/02/02 01:41:47;;;;;;;;;8.25;8.00;;;;;10.37;71.48;101964.97;5070522;27;50713;-72
2022/02/02 01:44:25;;;;;;;;;12.00;11.00;;;;;10.17;72.06;101937.88;5070295;27;49719;-71
2022/02/02 01:46:52;;;;;;;;;8.75;8.50;;;;;11.55;71.75;102202.69;5070475;28;49861;-71
2022/02/02 01:57:54;;;;;;;;;6.25;6.25;;;;;11.55;71.60;102186.91;5070291;27;49854;-71
2022/02/02 02:00:01;;;;;;;;;9.50;9.50;;;;;10.19;71.51;102000.06;5069046;28;50291;-71
2022/02/02 02:02:26;;;;;;;;;11.00;8.00;;;;;9.33;71.56;101809.34;5070007;28;50846;-71
2022/02/02 02:04:52;;;;;;;;;8.50;7.00;;;;;11.54;71.75;102190.38;5071643;27;50017;-71
2022/02/02 02:07:17;;;;;;;;;8.25;5.50;;;;;10.29;72.16;102012.78;5073809;28;49867;-71
2022/02/02 02:09:43;;;;;;;;;8.75;7.50;;;;;10.65;72.03;102072.00;5074093;28;49613;-71
2022/02/02 02:12:10;;;;;;;;;9.25;9.25;;;;;10.00;72.02;101918.78;5073580;28;50728;-71
2022/02/02 02:17:05;;;;;;;;;9.50;9.50;;;;;10.15;71.88;101979.78;5072376;28;49826;-71
2022/02/02 02:19:30;;;;;;;;;12.75;9.25;;;;;10.10;71.91;101936.72;5073662;28;49871;-71
2022/02/02 02:21:56;;;;;;;;;8.75;8.50;;;;;11.10;72.53;102152.72;5073817;27;50452;-71
2022/02/02 02:24:21;;;;;;;;;12.25;9.50;;;;;10.17;72.16;101996.50;5073770;28;49743;-75
2022/02/02 02:26:47;;;;;;;;;15.25;14.25;;;;;9.74;71.87;101915.97;5073576;28;49945;-74
2022/02/02 02:32:35;;;;;;;;;9.75;9.75;;;;;11.54;72.21;102189.50;5073253;28;49825;-74
2022/02/02 02:35:10;;;;;;;;;15.00;12.25;;;;;9.52;71.53;101884.44;5063334;27;49711;-71
2022/02/02 02:56:17;;;;;;;;;12.25;11.25;;;;;10.10;72.21;101965.56;5073019;28;49773;-77
2022/02/02 02:58:58;;;;;;;;;15.00;12.00;;;;;9.89;72.35;101885.97;5071649;28;49886;-75
2022/02/02 03:01:47;;;;;;;;;16.75;14.00;;;;;10.09;72.45;101928.78;5073113;28;49797;-75
2022/02/02 03:31:42;;;;;;;;;13.00;11.75;;;;;9.99;73.17;101893.41;5072326;28;49727;-76
2022/02/02 03:58:36;;;;;;;;;10.25;9.00;;;;;9.01;72.39;101815.84;5071859;28;50397;-75
2022/02/02 04:03:55;;;;;;;;;7.25;7.25;;;;;10.06;72.24;101940.03;5071906;28;49983;-78
2022/02/02 04:06:24;;;;;;;;;12.00;9.25;;;;;10.91;72.12;102120.38;5072008;27;49765;-76
2022/02/02 04:08:49;;;;;;;;;8.00;8.00;;;;;9.81;71.89;101903.13;5070351;28;50967;-75
2022/02/02 04:11:38;;;;;;;;;7.25;7.25;;;;;10.55;71.99;102055.88;5071737;28;49617;-77
2022/02/02 04:15:17;;;;;;;;;8.75;8.75;;;;;9.70;71.85;101882.59;5071851;28;49784;-77
2022/02/02 05:16:28;;;;;;;;;13.50;10.50;;;;;9.41;73.63;101967.84;5070325;27;49641;-79
2022/02/02 05:19:25;;;;;;;;;12.00;12.00;;;;;9.85;73.47;102055.44;5070823;28;49860;-76
2022/02/02 05:22:27;;;;;;;;;13.75;11.25;;;;;8.50;73.51;101809.19;5070746;27;49993;-75
2022/02/02 05:51:24;;;;;;;;;16.50;16.25;;;;;9.06;72.52;101895.50;5070494;28;49800;-75
2022/02/02 05:53:51;;;;;;;;;13.25;12.00;;;;;9.87;73.05;102045.91;5070578;28;49854;-76
2022/02/02 05:56:17;;;;;;;;;16.00;12.25;;;;;9.64;72.83;102005.53;5070147;28;49941;-75
2022/02/02 05:58:45;;;;;;;;;15.50;13.75;;;;;10.89;73.12;102175.44;5070272;28;49861;-75
2022/02/02 06:01:12;;;;;;;;;15.25;14.00;;;;;10.74;72.88;102167.84;5070430;28;49962;-75
2022/02/02 06:03:49;;;;;;;;;16.00;15.50;;;;;10.64;72.87;102123.63;5070598;27;50006;-77
2022/02/02 06:06:15;;;;;;;;;19.25;15.75;;;;;11.25;72.59;102236.53;5064005;28;50723;-75
2022/02/02 06:08:46;;;;;;;;;15.50;14.25;;;;;9.71;72.32;101970.00;5070303;28;49813;-76
2022/02/02 06:11:15;;;;;;;;;15.25;13.25;;;;;9.78;72.52;101971.19;5070212;28;49671;-79
2022/02/02 06:13:45;;;;;;;;;15.25;13.50;;;;;11.00;72.23;102196.91;5070292;28;49878;-74
2022/02/02 06:16:10;;;;;;;;;15.25;15.25;;;;;10.08;72.38;102021.44;5069995;28;49992;-73
2022/02/02 06:18:37;;;;;;;;;12.25;12.00;;;;;10.39;72.26;102084.03;5070125;28;49763;-76
2022/02/02 06:21:08;;;;;;;;;14.00;13.50;;;;;9.75;72.09;101996.44;5068951;28;50076;-77
2022/02/02 06:23:37;;;;;;;;;16.50;15.75;;;;;10.13;71.85;102025.13;5070432;28;50602;-76
2022/02/02 06:26:05;;;;;;;;;15.00;11.50;;;;;10.56;72.00;102109.28;5070071;27;50892;-75
2022/02/02 06:28:33;;;;;;;;;16.50;14.25;;;;;9.96;71.95;102016.56;5069875;28;49978;-76
2022/02/02 06:31:02;;;;;;;;;11.50;10.75;;;;;9.84;72.42;101961.84;5069924;28;49717;-74
2022/02/02 06:33:35;;;;;;;;;16.25;13.25;;;;;10.66;72.03;102113.19;5069808;28;49839;-74
2022/02/02 06:36:04;;;;;;;;;18.25;14.25;;;;;9.67;71.97;101987.34;5069973;28;50737;-75
2022/02/02 06:38:31;;;;;;;;;15.75;14.25;;;;;10.18;71.94;102029.78;5069621;28;49677;-75
2022/02/02 06:40:58;;;;;;;;;13.50;11.00;;;;;9.94;71.81;101984.09;5069949;27;50049;-71
2022/02/02 06:43:25;;;;;;;;;18.00;16.25;;;;;9.28;71.54;101892.13;5070061;28;49720;-76
2022/02/02 06:45:50;;;;;;;;;11.50;10.75;;;;;11.17;71.55;102203.78;5069490;28;49929;-76
2022/02/02 06:48:16;;;;;;;;;10.00;9.50;;;;;11.24;71.71;102213.72;5069781;28;49570;-76
2022/02/02 06:50:55;;;;;;;;;9.75;9.75;;;;;11.24;71.90;102221.59;5070565;28;49736;-76
2022/02/02 06:53:27;;;;;;;;;9.00;8.25;;;;;10.18;72.19;102042.88;5073247;27;49914;-68
2022/02/02 07:05:11;;;;;;;;;9.00;8.00;;;;;10.75;72.09;102167.00;5073416;27;49803;-71
2022/02/02 07:10:40;;;;;;;;;10.50;10.00;;;;;10.26;71.77;102104.50;5067203;28;49663;-78
2022/02/02 07:29:06;;;;;;;;;10.50;8.50;;;;;10.96;72.19;102221.28;5072385;27;49782;-68
2022/02/02 07:35:09;;;;;;;;;4.00;3.50;;;;;9.87;71.72;102066.00;5049399;27;49982;-68
2022/02/02 07:37:46;;;;;;;;;8.50;4.00;;;;;11.01;72.05;102214.50;5067679;28;49717;-68
2022/02/02 07:40:12;;;;;;;;;5.50;4.25;;;;;10.60;72.12;102147.94;5072212;27;50117;-69
2022/02/02 07:42:45;;;;;;;;;6.00;4.00;;;;;10.50;72.16;102156.28;5072490;28;49768;-69
2022/02/02 07:45:12;;;;;;;;;11.25;4.00;;;;;11.12;72.55;102229.00;5072375;28;49756;-70
2022/02/02 07:47:43;;;;;;;;;9.00;6.75;;;;;10.61;72.18;102155.00;5072535;27;49557;-69
2022/02/02 07:50:11;;;;;;;;;3.25;3.25;;;;;10.73;72.53;102207.19;5072244;28;50298;-70
2022/02/02 07:52:38;;;;;;;;;3.00;3.00;;;;;10.97;72.34;102225.69;5072481;28;50160;-70
2022/02/02 07:55:06;;;;;;;;;6.00;6.00;;;;;10.89;72.66;102231.50;5072365;28;49860;-70
2022/02/02 07:57:33;;;;;;;;;5.00;5.00;;;;;10.68;72.21;102169.28;5072553;28;50019;-70
2022/02/02 08:00:03;;;;;;;;;5.75;4.75;;;;;11.36;72.47;102282.56;5071576;27;49851;-69
2022/02/02 08:05:05;;;;;;;;;4.50;4.50;;;;;11.46;72.18;102294.38;5072229;27;50092;-68
2022/02/02 08:07:37;;;;;;;;;4.75;4.75;;;;;11.47;72.24;102331.25;5072108;28;50153;-69
2022/02/02 08:10:08;;;;;;;;;3.75;3.25;;;;;11.30;72.77;102279.72;5071846;28;50942;-69
2022/02/02 08:12:49;;;;;;;;;2.00;2.00;;;;;11.36;72.49;102272.06;5071928;28;49823;-68
2022/02/02 08:15:17;;;;;;;;;6.25;5.00;;;;;11.52;72.51;102294.63;5065756;28;50018;-68
2022/02/02 08:17:44;;;;;;;;;4.25;2.50;;;;;11.37;72.13;102291.34;5072266;27;49806;-76
2022/02/02 08:20:11;;;;;;;;;4.50;4.00;;;;;11.02;72.11;102232.06;5071567;28;49922;-75
2022/02/02 08:22:39;;;;;;;;;3.00;1.50;;;;;11.71;72.14;102359.41;5071782;27;49894;-72
2022/02/02 08:25:07;;;;;;;;;4.25;4.25;;;;;9.82;71.96;102002.84;5071935;28;49664;-71
2022/02/02 08:27:39;;;;;;;;;3.00;3.00;;;;;11.32;72.10;102248.22;5071987;28;49778;-72
2022/02/02 08:30:10;;;;;;;;;3.25;3.00;;;;;11.37;71.80;102283.47;5071409;28;50883;-74
2022/02/02 08:33:21;;;;;;;;;4.50;4.00;;;;;9.71;71.33;102010.25;5071501;28;49658;-81
2022/02/02 08:35:26;;;;;;;;;7.75;4.00;;;;;11.87;71.62;102360.97;5065813;27;49621;-73
2022/02/02 08:38:10;;;;;;;;;6.25;4.75;;;;;10.97;71.21;102183.66;5071781;28;50056;-73
2022/02/02 08:40:40;;;;;;;;;4.00;3.00;;;;;10.78;70.87;102132.97;5069625;28;50824;-76
2022/02/02 08:43:17;;;;;;;;;16.75;14.75;;;;;11.03;71.04;102171.69;5065505;28;49728;-77
2022/02/02 08:45:45;;;;;;;;;13.50;11.00;;;;;10.44;70.16;102116.66;5066159;28;50090;-78
2022/02/02 08:48:15;;;;;;;;;6.50;6.50;;;;;10.29;70.49;102046.91;5070294;28;50184;-74
2022/02/02 08:53:26;;;;;;;;;8.75;6.75;;;;;10.66;70.71;102085.19;5071817;28;49615;-80
2022/02/02 08:58:44;;;;;;;;;5.50;5.00;;;;;12.20;70.28;102356.19;5071917;28;50010;-79
2022/02/02 09:01:16;;;;;;;;;8.25;6.00;;;;;11.41;69.72;102196.91;5050506;28;52590;-81
2022/02/02 09:06:26;;;;;;;;;3.75;3.75;;;;;11.81;69.21;102279.16;5071582;27;49928;-79
2022/02/02 09:09:00;;;;;;;;;3.25;3.25;;;;;11.33;69.48;102192.16;5070433;28;49928;-80
2022/02/02 09:23:21;;;;;;;;;3.75;3.75;;;;;11.05;68.05;102093.81;5071019;28;50223;-78
2022/02/02 09:25:11;;;;;;;;;3.75;3.00;;;;;10.99;68.59;102147.81;5071396;27;49821;-80
2022/02/02 09:33:45;;;;;;;;;3.75;3.75;;;;;11.38;68.15;102157.31;5072226;28;49711;-71
2022/02/02 09:35:52;;;;;;;;;3.00;3.00;;;;;11.85;68.03;102250.38;5066332;28;49848;-79
2022/02/02 09:38:20;;;;;;;;;4.50;3.25;;;;;12.03;67.91;102253.75;5071604;28;49826;-80
2022/02/02 09:43:24;;;;;;;;;5.00;4.00;;;;;11.66;67.80;102261.00;5071795;27;50443;-82
2022/02/02 09:46:00;;;;;;;;;3.00;3.00;;;;;11.12;67.97;102102.84;5069735;28;49573;-82
2022/02/02 09:48:31;;;;;;;;;8.00;8.00;;;;;11.26;67.40;102142.81;5070707;28;49782;-82
2022/02/02 09:51:03;;;;;;;;;6.00;6.00;;;;;11.10;67.66;102134.31;5070176;28;50299;-78
2022/02/02 09:57:00;;;;;;;;;4.00;4.00;;;;;11.10;67.22;102094.91;5070627;28;49853;-80
2022/02/02 10:04:15;;;;;;;;;7.00;7.00;;;;;12.57;67.73;102340.97;5070065;27;49747;-78
2022/02/02 10:06:52;;;;;;;;;4.50;4.50;;;;;11.44;67.01;102172.44;5069973;27;49889;-78
2022/02/02 10:15:17;;;;;;;;;7.25;7.25;;;;;11.71;67.55;102184.06;5069912;27;49991;-76
2022/02/02 10:17:44;;;;;;;;;7.00;6.50;;;;;12.50;67.26;102309.94;5064832;28;49800;-78
2022/02/02 10:20:21;;;;;;;;;4.75;4.75;;;;;11.31;66.80;102114.97;5070212;28;49828;-77
2022/02/02 10:22:49;;;;;;;;;3.25;3.25;;;;;11.42;66.82;102147.84;5070131;27;49976;-78
2022/02/02 10:25:27;;;;;;;;;3.00;3.00;;;;;11.42;66.55;102092.63;5069825;28;49671;-78
2022/02/02 10:28:04;;;;;;;;;4.00;4.00;;;;;11.62;66.67;102132.84;5072307;28;49881;-77
2022/02/02 10:30:31;;;;;;;;;5.75;5.00;;;;;12.48;66.15;102290.56;5073402;28;49764;-76
2022/02/02 10:32:57;;;;;;;;;7.50;5.50;;;;;11.82;66.07;102178.34;5073678;28;49619;-75
2022/02/02 10:35:39;;;;;;;;;6.75;6.75;;;;;13.10;65.51;102354.31;5073194;28;49873;-74
2022/02/02 10:38:11;;;;;;;;;6.25;5.00;;;;;12.80;65.63;102294.38;5066892;28;49783;-75
2022/02/02 10:43:34;;;;;;;;;2.50;2.50;;;;;12.07;64.01;102190.72;5072590;27;50036;-76
2022/02/02 10:46:18;;;;;;;;;3.50;3.50;;;;;13.01;63.57;102357.50;5073424;28;50787;-75
2022/02/02 10:48:49;;;;;;;;;2.00;2.00;;;;;11.14;64.71;102067.00;5066995;28;49926;-76
2022/02/02 10:56:34;;;;;;;;;6.00;5.25;;;;;11.67;63.80;102100.59;5073198;28;50441;-73
2022/02/02 11:06:44;;;;;;;;;6.00;6.00;;;;;13.32;63.23;102301.53;5071952;28;50214;-75
2022/02/02 11:09:15;;;;;;;;;4.00;4.00;;;;;13.49;62.85;102312.63;5073052;28;49602;-74
2022/02/02 11:11:43;;;;;;;;;3.75;3.75;;;;;13.82;62.88;102359.47;5072797;28;49693;-72
2022/02/02 11:14:41;;;;;;;;;4.25;4.25;;;;;13.22;62.36;102256.28;5072934;28;49886;-73
2022/02/02 11:17:46;;;;;;;;;3.00;2.00;;;;;13.99;62.19;102360.88;5062727;28;49833;-73
2022/02/02 11:20:13;;;;;;;;;4.25;2.75;;;;;13.60;61.88;102303.31;5071364;28;49793;-71
2022/02/02 11:22:50;;;;;;;;;3.25;3.25;;;;;13.01;62.27;102186.16;5071471;28;49843;-72
2022/02/02 11:25:16;;;;;;;;;3.25;2.50;;;;;14.11;61.79;102363.94;5073134;27;49958;-70
2022/02/02 11:27:41;;;;;;;;;3.25;3.25;;;;;14.17;60.95;102364.13;5072644;28;50422;-70
2022/02/02 11:30:27;;;;;;;;;4.25;3.00;;;;;14.04;60.79;102319.69;5072619;28;49956;-72
2022/02/02 11:33:21;;;;;;;;;2.75;2.75;;;;;14.24;61.32;102358.19;5072426;27;49992;-71
2022/02/02 11:35:50;;;;;;;;;2.75;2.75;;;;;14.09;61.33;102339.22;5067745;28;49775;-69
2022/02/02 11:38:35;;;;;;;;;3.50;3.50;;;;;13.98;61.01;102336.22;5072311;28;49767;-71
2022/02/02 11:41:03;;;;;;;;;4.00;4.00;;;;;14.14;61.44;102349.94;5071432;28;49973;-72
2022/02/02 11:44:00;;;;;;;;;2.00;2.00;;;;;14.18;61.34;102357.09;5071847;28;49984;-73
2022/02/02 11:46:46;;;;;;;;;4.00;3.00;;;;;14.15;61.58;102357.88;5067697;28;49787;-67
2022/02/02 11:49:17;;;;;;;;;3.75;3.00;;;;;14.17;61.60;102350.91;5072366;28;51679;-67
2022/02/02 11:52:03;;;;;;;;;2.25;2.25;;;;;14.18;61.34;102352.69;5072415;28;49705;-70
2022/02/02 11:54:31;;;;;;;;;3.75;3.75;;;;;14.26;61.27;102351.19;5066152;28;50052;-65
2022/02/02 11:57:00;;;;;;;;;2.25;2.25;;;;;14.18;61.10;102357.09;5072568;28;49898;-67
2022/02/02 12:00:02;;;;;;;;;3.00;3.00;;;;;14.09;61.03;102363.00;5071898;28;50642;-67
2022/02/02 12:05:30;;;;;;;;;1.00;1.00;;;;;13.97;61.00;102363.47;5071983;28;49879;-72
2022/02/02 12:56:59;;;;;;;;;3.50;3.00;;;;;13.58;61.09;102299.72;5064786;28;49740;-70
2022/02/02 13:02:17;;;;;;;;;5.25;2.50;;;;;13.79;60.88;102330.31;5067817;28;49866;-71
2022/02/02 13:04:46;;;;;;;;;4.00;2.50;;;;;13.78;61.30;102326.78;5070679;28;49835;-70
2022/02/02 13:07:15;;;;;;;;;2.25;2.00;;;;;13.81;60.30;102336.56;5069374;28;49901;-70
2022/02/02 13:09:43;;;;;;;;;4.25;2.75;;;;;13.55;59.90;102302.28;5070968;28;49767;-70
2022/02/02 13:12:34;;;;;;;;;2.00;2.00;;;;;13.86;60.55;102334.94;5071029;27;50005;-70
2022/02/02 13:26:43;;;;;;;;;2.00;1.00;;;;;13.15;59.43;102189.25;5068731;28;50009;-71
2022/02/02 13:48:15;;;;;;;;;2.75;2.75;;;;;14.27;58.51;102334.50;5070361;27;50358;-70
2022/02/02 14:33:22;;;;;;;;;1.00;1.00;;;;;13.89;57.20;102320.09;5073525;28;49786;-71
2022/02/02 14:35:50;;;;;;;;;1.00;1.00;;;;;13.84;57.21;102320.81;5073907;28;49893;-70
2022/02/02 14:38:18;;;;;;;;;1.00;1.00;;;;;13.61;57.22;102302.50;5072653;28;50059;-71
2022/02/02 14:43:11;;;;;;;;;1.00;1.00;;;;;13.62;57.30;102317.47;5073610;28;50048;-69
2022/02/02 14:45:41;;;;;;;;;3.00;2.00;;;;;13.60;56.70;102342.88;5073397;28;49883;-69
2022/02/02 14:48:25;;;;;;;;;1.25;1.25;;;;;13.63;57.34;102308.72;5073615;27;49846;-69
2022/02/02 14:51:06;;;;;;;;;1.00;1.00;;;;;13.62;56.94;102300.75;5073124;28;49809;-68
2022/02/02 15:28:47;;;;;;;;;2.75;1.00;;;;;13.63;56.74;102336.84;5072301;28;49890;-72
2022/02/02 15:31:14;;;;;;;;;1.00;1.00;;;;;13.57;56.38;102350.72;5072864;28;49764;-75
2022/02/02 15:33:39;;;;;;;;;3.00;1.00;;;;;13.50;56.43;102351.34;5072139;28;49791;-66
2022/02/02 15:38:53;;;;;;;;;1.00;1.00;;;;;13.49;57.23;102354.81;5040667;27;49901;-76
2022/02/02 15:41:25;;;;;;;;;2.25;1.25;;;;;13.43;57.73;102344.97;5073027;27;49760;-74
2022/02/02 16:05:21;;;;;;;;;2.25;2.25;;;;;12.69;57.71;102265.84;5055544;28;50432;-75
2022/02/02 16:07:49;;;;;;;;;2.25;2.25;;;;;12.99;58.07;102316.13;5070686;27;49854;-75
2022/02/02 16:10:19;;;;;;;;;1.00;1.00;;;;;12.58;57.88;102249.66;5070770;28;49703;-75
2022/02/02 16:12:46;;;;;;;;;3.50;2.00;;;;;12.84;58.54;102301.56;5072282;27;49861;-74
2022/02/02 16:17:59;;;;;;;;;1.75;1.75;;;;;12.88;58.76;102315.72;5071996;27;49812;-73
2022/02/02 16:34:40;;;;;;;;;3.50;3.00;;;;;12.73;59.45;102315.16;5071508;28;49687;-75
2022/02/02 16:36:41;;;;;;;;;3.00;3.00;;;;;12.61;58.90;102292.81;5071176;27;50736;-75
2022/02/02 16:39:11;;;;;;;;;1.50;1.50;;;;;12.51;59.70;102273.97;5071621;28;49680;-75
2022/02/02 16:44:22;;;;;;;;;3.00;3.00;;;;;12.46;59.70;102275.56;5071444;28;49550;-74
2022/02/02 16:46:47;;;;;;;;;3.00;3.00;;;;;12.49;59.62;102294.09;5071198;28;49851;-76
2022/02/02 16:49:12;;;;;;;;;1.75;1.75;;;;;12.27;59.59;102252.91;5071432;28;49885;-73
2022/02/02 16:51:39;;;;;;;;;3.25;3.25;;;;;12.48;60.03;102285.28;5069836;28;50106;-72
2022/02/02 16:54:08;;;;;;;;;3.00;3.00;;;;;12.46;60.04;102281.72;5071682;28;49904;-76
2022/02/02 17:39:59;;;;;;;;;3.50;3.50;;;;;11.94;59.59;102271.81;5070655;27;49696;-79
2022/02/02 17:42:55;;;;;;;;;5.25;5.25;;;;;12.12;59.26;102308.47;5057684;28;49804;-80
2022/02/02 18:20:03;;;;;;;;;3.00;3.00;;;;;11.85;57.35;102286.34;5070465;28;49665;-79
2022/02/02 18:22:42;;;;;;;;;2.50;2.50;;;;;11.45;58.35;102238.25;5070340;27;49827;-79
2022/02/02 18:28:02;;;;;;;;;2.00;2.00;;;;;11.85;58.25;102284.59;5070170;28;49674;-80
2022/02/02 18:35:33;;;;;;;;;2.50;2.50;;;;;11.79;58.22;102262.41;5069990;28;49787;-79
2022/02/02 18:41:48;;;;;;;;;3.00;2.00;;;;;11.36;58.50;102193.19;5070222;28;50099;-79
2022/02/02 18:56:52;;;;;;;;;3.00;3.00;;;;;11.76;57.99;102278.94;5030271;28;49724;-79
2022/02/02 19:02:20;;;;;;;;;3.25;3.25;;;;;11.91;58.22;102302.38;5056904;27;49777;-78
2022/02/02 19:30:54;;;;;;;;;4.75;4.75;;;;;11.80;58.20;102280.91;5072846;28;50271;-79
2022/02/02 19:56:46;;;;;;;;;11.00;8.00;;;;;11.46;59.69;102223.38;5072725;28;49749;-72
2022/02/02 20:04:33;;;;;;;;;9.25;5.75;;;;;11.72;59.79;102272.66;5072496;28;49943;-77
2022/02/02 20:06:59;;;;;;;;;7.75;7.25;;;;;11.69;59.93;102274.28;5072101;27;49860;-77
2022/02/02 20:12:25;;;;;;;;;8.00;7.50;;;;;11.54;59.49;102248.25;5062657;27;49657;-76
2022/02/02 20:14:50;;;;;;;;;7.00;7.00;;;;;11.70;59.91;102278.72;5070418;28;50319;-76
2022/02/02 20:17:18;;;;;;;;;7.00;5.75;;;;;11.69;59.44;102283.06;5071027;28;50000;-72
2022/02/02 20:19:49;;;;;;;;;10.00;6.50;;;;;11.63;59.50;102282.81;5071771;27;49901;-74
2022/02/02 20:22:23;;;;;;;;;10.00;10.00;;;;;11.77;59.67;102312.31;5070712;28;49741;-78
2022/02/02 20:24:54;;;;;;;;;10.25;8.75;;;;;11.67;59.40;102304.88;5070281;27;49807;-80
2022/02/02 20:27:20;;;;;;;;;8.00;8.00;;;;;11.16;59.25;102225.63;5072027;27;49763;-84
2022/02/02 20:29:45;;;;;;;;;9.75;8.00;;;;;11.52;59.64;102285.84;5070932;28;50910;-82
2022/02/02 20:32:10;;;;;;;;;6.25;6.25;;;;;11.42;59.28;102272.31;5070222;28;49825;-80
2022/02/02 20:34:36;;;;;;;;;11.50;9.50;;;;;11.51;59.23;102284.94;5069329;28;50012;-82
2022/02/02 20:37:01;;;;;;;;;9.00;6.50;;;;;11.32;59.08;102271.88;5070657;28;49616;-83
2022/02/02 20:41:54;;;;;;;;;5.00;4.75;;;;;11.41;59.82;102288.94;5071486;27;49822;-80
2022/02/02 20:44:27;;;;;;;;;7.75;7.75;;;;;11.49;59.02;102301.50;5069206;28;49826;-77
2022/02/02 21:00:13;;;;;;;;;5.00;5.00;;;;;11.20;59.33;102253.88;5071870;28;49864;-80
2022/02/02 21:11:21;;;;;;;;;6.25;4.00;;;;;11.36;59.15;102287.81;5070462;27;49825;-78
2022/02/02 21:13:53;;;;;;;;;5.75;4.75;;;;;11.37;59.07;102294.88;5070898;28;49738;-78
2022/02/02 21:16:21;;;;;;;;;9.00;6.25;;;;;11.35;58.85;102283.41;5071145;27;49729;-78
2022/02/02 21:18:53;;;;;;;;;10.75;7.75;;;;;11.42;58.53;102298.63;5071190;27;49761;-78
2022/02/02 21:21:36;;;;;;;;;8.50;4.75;;;;;11.15;58.70;102252.75;5070982;28;49921;-77
2022/02/02 21:27:14;;;;;;;;;8.50;6.00;;;;;11.34;58.62;102283.34;5070823;28;49637;-78
2022/02/02 21:29:35;;;;;;;;;5.25;5.25;;;;;11.14;58.81;102238.72;5070608;28;49683;-78
2022/02/02 21:32:01;;;;;;;;;6.00;6.00;;;;;11.24;58.86;102254.88;5070755;27;50675;-78
2022/02/02 21:34:27;;;;;;;;;4.75;4.25;;;;;11.42;58.70;102285.47;5070997;28;50173;-77
2022/02/02 21:36:54;;;;;;;;;3.25;3.25;;;;;11.04;58.33;102226.03;5070862;28;50081;-77
2022/02/02 21:39:22;;;;;;;;;5.00;5.00;;;;;11.50;58.86;102293.69;5069711;28;49717;-76
2022/02/02 21:41:57;;;;;;;;;4.00;4.00;;;;;11.08;58.85;102225.31;5070620;28;50473;-78
2022/02/02 21:44:23;;;;;;;;;4.75;4.25;;;;;11.40;58.30;102283.63;5070461;28;49758;-77
2022/02/02 21:46:49;;;;;;;;;4.50;4.50;;;;;11.18;58.42;102256.41;5069650;28;49833;-78
2022/02/02 21:49:18;;;;;;;;;4.75;4.00;;;;;11.46;58.64;102295.25;5069538;28;49783;-78
2022/02/02 21:52:07;;;;;;;;;4.75;4.50;;;;;11.42;58.34;102284.56;5070473;27;49755;-78
2022/02/02 21:54:32;;;;;;;;;3.00;3.00;;;;;11.43;57.58;102278.47;5070924;27;49979;-78
2022/02/02 21:56:59;;;;;;;;;5.50;5.50;;;;;11.37;58.12;102268.59;5069262;28;49702;-78
2022/02/02 21:59:25;;;;;;;;;4.50;3.25;;;;;11.52;58.37;102291.09;5069159;28;49811;-77
2022/02/02 22:01:51;;;;;;;;;4.00;4.00;;;;;11.40;57.26;102276.63;5070327;28;50466;-77
2022/02/02 22:04:17;;;;;;;;;5.50;4.25;;;;;11.18;58.05;102234.47;5070349;28;49730;-77
2022/02/02 22:06:42;;;;;;;;;5.00;5.00;;;;;11.41;58.07;102272.25;5068951;28;49747;-77
2022/02/02 22:09:07;;;;;;;;;4.00;3.00;;;;;11.39;57.06;102268.69;5070688;28;49886;-78
2022/02/02 22:11:33;;;;;;;;;3.00;3.00;;;;;11.28;57.49;102246.28;5070160;28;50410;-77
2022/02/02 22:14:02;;;;;;;;;3.00;2.00;;;;;11.30;57.61;102253.41;5070343;27;49779;-76
2022/02/02 22:16:28;;;;;;;;;2.00;1.00;;;;;11.26;58.24;102243.59;5070449;28;49882;-77
2022/02/02 22:18:55;;;;;;;;;2.00;2.00;;;;;11.44;57.62;102267.13;5070472;27;50055;-76
2022/02/02 22:21:21;;;;;;;;;3.50;2.50;;;;;11.34;57.65;102250.06;5070185;28;49644;-75
2022/02/02 22:23:46;;;;;;;;;3.00;3.00;;;;;11.30;57.59;102242.91;5074038;27;49633;-76
2022/02/02 22:26:13;;;;;;;;;3.50;3.50;;;;;11.36;57.85;102258.00;5074261;28;49781;-76
2022/02/02 22:28:39;;;;;;;;;7.25;3.00;;;;;11.34;57.55;102257.94;5074003;28;49633;-77
2022/02/02 22:31:04;;;;;;;;;4.75;3.00;;;;;11.15;57.20;102230.00;5073847;28;50274;-77
2022/02/02 22:33:32;;;;;;;;;6.50;4.75;;;;;11.10;56.63;102221.03;5073911;28;49676;-77
2022/02/02 22:35:58;;;;;;;;;3.50;3.50;;;;;11.17;56.78;102230.06;5073763;28;49765;-77
2022/02/02 22:38:24;;;;;;;;;3.00;2.00;;;;;11.14;56.98;102233.47;5074097;28;49864;-76
2022/02/02 22:40:50;;;;;;;;;2.00;2.00;;;;;11.32;56.80;102259.63;5073685;27;50395;-76
2022/02/02 22:43:15;;;;;;;;;3.00;3.00;;;;;11.40;56.75;102275.72;5073802;28;50081;-76
2022/02/02 22:45:44;;;;;;;;;2.75;2.75;;;;;11.19;56.46;102252.03;5073815;28;50329;-79
2022/02/02 22:48:11;;;;;;;;;3.00;3.00;;;;;11.18;57.12;102231.84;5073728;28;49916;-77
2022/02/02 22:50:37;;;;;;;;;5.75;3.25;;;;;11.14;57.07;102215.06;5073357;28;50866;-78
2022/02/02 22:53:02;;;;;;;;;3.75;2.50;;;;;11.20;56.90;102216.16;5073384;28;49755;-78
2022/02/02 22:55:28;;;;;;;;;4.25;3.00;;;;;11.25;57.26;102220.75;5073619;28;49715;-80
2022/02/02 22:57:54;;;;;;;;;3.00;3.00;;;;;11.30;56.87;102237.63;5073610;28;49731;-79
2022/02/02 23:00:32;;;;;;;;;3.25;3.00;;;;;11.40;57.41;102252.97;5073232;28;50828;-76
2022/02/02 23:03:00;;;;;;;;;2.75;2.75;;;;;11.06;57.05;102207.69;5068521;28;49841;-78
2022/02/02 23:05:37;;;;;;;;;2.50;2.25;;;;;11.36;57.10;102252.75;5073066;28;49688;-80
2022/02/02 23:08:05;;;;;;;;;6.50;4.25;;;;;11.17;57.36;102224.81;5073621;28;49621;-80